Portada
METAR-TAF:

METAR-TAF

Aeroports :

Nassau, Bahames

latitud: 25-03N, longitud: 077-28W, altitud: 3 m

Observació

L'informe es va fer fa 40 minuts, a les 19:00 UTC
Vent 11 kt del Sud-Est
Temperatura 29°C
Humitat 55%
Pressió 1021 hPa
Visibilitat 10 km o més
Escasses núvols a una alçada de 2500 ft

METAR: MYNN 291900Z 14011KT 9999 FEW025 29/19 A3015

Hora: 15:40 (19:40 UTC)

Pronòstic

L'informe es va fer fa 3 hores i 10 minuts, a les 16:30 UTC
Pronòstic vàlid del 29 a les 18 UTC al 30 a les 18 UTC
Vent 11 kt del Est/Sud-Est
Visibilitat 10 km o més
Núvols disperses a una alçada de 2000 ft
Probabilitat 30% :
Temporalment
l' 30 a les 00 UTC al 30 a les 09 UTC
Vent 2 kt amb direcció variable
Visibilitat 10 km o més
sense núvols per sota de 1500 mi sense presència de cumulonimbus.

TAF: MYNN 291630Z 2918/3018 12011KT 9999 SCT020 PROB30 TEMPO 3000/3009 VRB02KT CAVOK

Observacions i pronòstics meteorològics de més de 4000 aeroports (METAR i TAF).

Les estacions disponibles són els punts grocs i vermells al mapa.

Posi el ratolí al punt desitjat per veure el nom de l'estació.

Feu clic per veure les observacions i els pronòstics meteorològics.

Per canviar el mapa: feu clic els botons verds amb una creu de color negre per apropar; al botó verd amb un guió per allunyar la imatge; o en les fletxes verdes per a mapes adjacents.


METAR-TAF: